Time;durP1;ratioP1;P1;durP2;ratioP2;P2;SDS_P1;SDS_P2;PMS_P1;PMS_P2;Temp;Humidity;BMP_temperature;BMP_pressure;BME280_temperature;BME280_humidity;BME280_pressure;Samples;Min_cycle;Max_cycle;Signal;HPM_P1;HPM_P2
2023/01/28 00:00:09;;;;;;;3.43;3.30;;;;;;;0.63;88.26;95737.34;4371694;32;20215;-64
2023/01/28 00:02:36;;;;;;;4.18;3.42;;;;;;;0.65;88.57;95743.13;4373722;32;20229;-64
2023/01/28 00:05:01;;;;;;;2.42;2.12;;;;;;;0.57;89.07;95735.63;4351732;32;20258;-64
2023/01/28 00:07:27;;;;;;;2.37;2.27;;;;;;;0.86;89.00;95733.22;4391002;32;20188;-64
2023/01/28 00:09:52;;;;;;;3.23;3.10;;;;;;;0.89;88.47;95732.78;4360979;32;20203;-64
2023/01/28 00:12:18;;;;;;;2.63;2.53;;;;;;;0.72;88.69;95737.03;4350806;32;20189;-64
2023/01/28 00:14:46;;;;;;;2.97;2.87;;;;;;;0.86;88.83;95734.03;4368312;32;20263;-63
2023/01/28 00:17:14;;;;;;;3.42;3.20;;;;;;;0.86;88.83;95733.22;4376470;32;20203;-64
2023/01/28 00:19:39;;;;;;;3.45;3.25;;;;;;;0.77;88.17;95739.78;4353219;32;20193;-64
2023/01/28 00:22:06;;;;;;;2.53;2.42;;;;;;;0.73;88.91;95743.88;4355809;32;20240;-63
2023/01/28 00:24:32;;;;;;;3.12;3.03;;;;;;;0.91;88.40;95730.75;4383807;32;20251;-64
2023/01/28 00:26:58;;;;;;;2.85;2.72;;;;;;;0.83;88.18;95728.47;4381539;32;20237;-64
2023/01/28 00:29:24;;;;;;;4.13;3.83;;;;;;;0.82;88.36;95737.34;4358628;32;20188;-63
2023/01/28 00:31:51;;;;;;;2.87;2.67;;;;;;;0.71;88.64;95732.84;4380499;32;20245;-64
2023/01/28 00:34:17;;;;;;;3.78;3.50;;;;;;;0.65;89.41;95737.91;4348845;32;20313;-63
2023/01/28 00:36:42;;;;;;;3.23;3.13;;;;;;;0.61;89.40;95733.37;4377633;32;20180;-63
2023/01/28 00:39:15;;;;;;;3.80;3.57;;;;;;;0.83;89.10;95738.91;4367617;32;20188;-63
2023/01/28 00:41:43;;;;;;;3.20;3.00;;;;;;;0.73;88.95;95734.22;4378201;32;20188;-63
2023/01/28 00:44:09;;;;;;;3.10;2.90;;;;;;;0.79;88.58;95737.75;4380074;32;20192;-63
2023/01/28 00:46:35;;;;;;;5.10;4.83;;;;;;;0.71;89.12;95738.06;4369344;32;20192;-63
2023/01/28 00:49:02;;;;;;;4.03;3.55;;;;;;;0.79;89.09;95735.16;4354722;32;20295;-63
2023/01/28 00:51:27;;;;;;;3.45;3.17;;;;;;;0.92;88.58;95737.56;4378818;32;20207;-64
2023/01/28 00:53:54;;;;;;;2.27;2.13;;;;;;;1.05;87.85;95729.53;4340324;32;20265;-64
2023/01/28 00:56:20;;;;;;;5.62;5.05;;;;;;;1.13;87.65;95731.84;4371418;32;20218;-64
2023/01/28 00:58:48;;;;;;;3.37;3.20;;;;;;;1.32;86.95;95730.75;4380824;32;20327;-63
2023/01/28 01:01:19;;;;;;;3.03;2.92;;;;;;;1.56;85.76;95730.78;4371481;32;20192;-64
2023/01/28 01:03:45;;;;;;;3.97;3.78;;;;;;;1.29;85.96;95733.00;4373077;32;20204;-63
2023/01/28 01:06:13;;;;;;;3.05;2.95;;;;;;;1.07;86.90;95732.72;4366327;32;20208;-64
2023/01/28 01:08:41;;;;;;;3.53;3.35;;;;;;;0.97;87.50;95733.28;4374423;32;20260;-63
2023/01/28 01:11:10;;;;;;;3.87;3.77;;;;;;;1.02;87.37;95737.84;4368937;32;20177;-63
2023/01/28 01:13:37;;;;;;;3.72;3.45;;;;;;;0.90;87.71;95739.59;4338915;32;20391;-64
2023/01/28 01:16:09;;;;;;;3.67;3.37;;;;;;;0.94;87.51;95738.16;4337825;32;20182;-64
2023/01/28 01:18:40;;;;;;;3.70;3.50;;;;;;;1.03;87.76;95736.84;4354958;32;20207;-63
2023/01/28 01:21:12;;;;;;;2.53;2.43;;;;;;;0.94;87.37;95743.38;4337661;32;20188;-64
2023/01/28 01:23:38;;;;;;;2.62;2.53;;;;;;;1.32;86.39;95743.00;4393653;32;20295;-64
2023/01/28 01:26:06;;;;;;;4.50;4.10;;;;;;;1.09;86.11;95746.38;4375666;32;20195;-64
2023/01/28 01:28:33;;;;;;;4.22;3.85;;;;;;;0.85;87.31;95753.31;4360365;32;20238;-64
2023/01/28 01:31:02;;;;;;;4.97;3.72;;;;;;;0.86;87.61;95739.25;4364940;32;20199;-64
2023/01/28 01:33:30;;;;;;;3.35;3.17;;;;;;;0.79;88.14;95735.94;4353837;32;20255;-64
2023/01/28 01:35:59;;;;;;;4.10;3.90;;;;;;;1.00;87.48;95742.50;4360801;32;20185;-64
2023/01/28 01:38:27;;;;;;;2.50;2.33;;;;;;;0.88;87.43;95746.88;4383881;32;20204;-63
2023/01/28 01:40:58;;;;;;;3.97;3.67;;;;;;;0.90;87.09;95757.88;4371619;32;20280;-64
2023/01/28 01:43:45;;;;;;;4.25;3.60;;;;;;;0.95;87.50;95750.19;4370125;32;20275;-63
2023/01/28 01:46:11;;;;;;;2.00;2.00;;;;;;;0.90;87.64;95756.06;4366112;32;20199;-64
2023/01/28 01:48:39;;;;;;;5.18;4.78;;;;;;;0.67;88.59;95750.75;4376873;32;20192;-67
2023/01/28 01:51:24;;;;;;;3.22;3.03;;;;;;;0.52;89.17;95753.75;4382853;32;20185;-63
2023/01/28 01:53:53;;;;;;;2.53;2.42;;;;;;;0.47;89.71;95761.44;4361767;32;20194;-63
2023/01/28 01:56:27;;;;;;;3.27;3.17;;;;;;;0.57;89.33;95766.94;4365078;32;20260;-63
2023/01/28 01:58:56;;;;;;;4.20;3.72;;;;;;;0.48;90.06;95768.25;4363942;32;20276;-64
2023/01/28 02:01:28;;;;;;;3.67;2.50;;;;;;;0.68;89.54;95763.59;4369438;32;20181;-64
2023/01/28 02:04:24;;;;;;;4.30;4.10;;;;;;;0.48;90.05;95764.84;4361622;32;20188;-64
2023/01/28 02:06:50;;;;;;;3.92;3.72;;;;;;;0.71;89.97;95764.97;4368291;32;20193;-63
2023/01/28 02:09:28;;;;;;;2.37;2.27;;;;;;;0.74;89.42;95763.72;4377398;32;20279;-64
2023/01/28 02:12:00;;;;;;;4.15;3.78;;;;;;;0.75;88.97;95760.09;4388204;32;20294;-64
2023/01/28 02:14:30;;;;;;;3.17;3.03;;;;;;;0.78;88.28;95768.28;4386631;32;20192;-64
2023/01/28 02:16:56;;;;;;;2.25;2.05;;;;;;;0.99;87.70;95764.41;4368606;32;20226;-64
2023/01/28 02:19:31;;;;;;;5.13;4.17;;;;;;;1.26;86.83;95765.59;4387912;32;20192;-64
2023/01/28 02:22:31;;;;;;;2.22;2.12;;;;;;;1.38;86.27;95766.44;4358352;32;20275;-64
2023/01/28 02:25:08;;;;;;;3.50;3.07;;;;;;;1.25;85.92;95766.62;4348428;32;20286;-64
2023/01/28 02:27:51;;;;;;;3.12;3.03;;;;;;;1.26;85.72;95773.44;4388836;32;20354;-64
2023/01/28 02:30:34;;;;;;;2.70;2.33;;;;;;;1.21;86.04;95772.53;4381819;32;20358;-64
2023/01/28 02:33:08;;;;;;;5.75;3.37;;;;;;;1.12;86.05;95766.81;4358511;32;20184;-64
2023/01/28 02:35:48;;;;;;;2.95;2.65;;;;;;;1.21;85.70;95767.31;4347567;32;20202;-63
2023/01/28 02:38:20;;;;;;;4.55;4.25;;;;;;;1.27;85.37;95771.63;4375181;32;20185;-64
2023/01/28 02:41:12;;;;;;;2.10;2.00;;;;;;;1.18;85.66;95768.56;4382792;32;20189;-64
2023/01/28 02:43:42;;;;;;;2.62;2.53;;;;;;;1.23;84.68;95767.88;4381147;32;20272;-64
2023/01/28 02:49:16;;;;;;;2.22;2.22;;;;;;;1.02;86.58;95769.19;4379656;32;20325;-64
2023/01/28 02:52:12;;;;;;;2.97;2.87;;;;;;;1.12;85.77;95773.88;4367287;32;20220;-63
2023/01/28 02:54:44;;;;;;;3.17;2.97;;;;;;;0.98;86.00;95773.25;4384197;32;20219;-64
2023/01/28 02:57:31;;;;;;;2.22;2.08;;;;;;;0.80;86.59;95773.31;4362924;32;20270;-63
2023/01/28 03:00:06;;;;;;;7.12;4.30;;;;;;;0.89;87.07;95774.56;4365265;32;20203;-64
2023/01/28 03:03:03;;;;;;;2.97;2.87;;;;;;;1.00;86.37;95772.03;4360563;32;20232;-64
2023/01/28 03:06:02;;;;;;;3.67;3.47;;;;;;;1.13;86.28;95780.69;4372836;32;20187;-64
2023/01/28 03:38:19;;;;;;;1.77;1.77;;;;;;;0.77;87.66;95797.22;4382963;32;20319;-63
2023/01/28 03:40:56;;;;;;;2.33;2.12;;;;;;;0.79;86.13;95800.44;4382230;32;20181;-64
2023/01/28 03:43:23;;;;;;;4.07;3.60;;;;;;;0.71;86.81;95793.69;4376189;32;20187;-63
2023/01/28 03:45:51;;;;;;;4.72;3.65;;;;;;;0.60;86.93;95803.06;4348195;32;20248;-64
2023/01/28 03:48:25;;;;;;;2.65;2.55;;;;;;;0.48;87.56;95804.78;4376248;32;20279;-63
2023/01/28 03:50:53;;;;;;;3.12;2.55;;;;;;;0.62;87.17;95802.84;4364146;32;20242;-64
2023/01/28 03:53:20;;;;;;;3.00;2.80;;;;;;;0.74;86.88;95802.88;4365089;32;20249;-63
2023/01/28 03:55:48;;;;;;;3.60;3.30;;;;;;;1.00;86.45;95799.94;4375229;32;20191;-64
2023/01/28 03:58:17;;;;;;;2.83;2.62;;;;;;;0.97;86.57;95797.78;4379341;32;20221;-63
2023/01/28 04:00:44;;;;;;;4.50;4.20;;;;;;;1.22;85.79;95801.06;4384601;32;20192;-63
2023/01/28 04:03:18;;;;;;;4.00;3.67;;;;;;;1.07;84.43;95798.03;4379199;32;20188;-63
2023/01/28 04:05:46;;;;;;;5.05;4.65;;;;;;;1.05;85.19;95807.91;4354142;32;20238;-63
2023/01/28 04:08:16;;;;;;;2.93;2.83;;;;;;;1.35;84.46;95800.06;4360630;32;20239;-63
2023/01/28 04:10:42;;;;;;;3.95;3.60;;;;;;;1.53;84.09;95807.03;4369225;32;20311;-64
2023/01/28 04:13:08;;;;;;;3.93;3.73;;;;;;;1.60;83.33;95807.72;4373128;32;20188;-64
2023/01/28 04:15:35;;;;;;;4.27;4.07;;;;;;;1.64;83.26;95806.28;4366345;32;20303;-64
2023/01/28 04:18:03;;;;;;;2.80;2.60;;;;;;;1.29;84.29;95820.03;4386801;32;20257;-63
2023/01/28 04:20:30;;;;;;;3.50;3.07;;;;;;;1.25;84.84;95808.44;4372970;32;20281;-63
2023/01/28 04:22:56;;;;;;;2.30;2.20;;;;;;;1.05;86.24;95810.50;4357201;32;20376;-64
2023/01/28 04:25:22;;;;;;;2.50;2.40;;;;;;;1.09;85.17;95821.31;4350440;32;20299;-64
2023/01/28 04:27:47;;;;;;;6.83;4.30;;;;;;;1.02;85.53;95822.22;4361106;32;21131;-64
2023/01/28 04:30:15;;;;;;;4.50;3.77;;;;;;;1.15;85.21;95818.63;4369210;32;20280;-63
2023/01/28 04:32:41;;;;;;;4.57;3.83;;;;;;;1.30;84.40;95819.00;4384176;32;20193;-64
2023/01/28 04:35:09;;;;;;;4.27;4.07;;;;;;;1.27;84.29;95819.44;4383360;32;20280;-64
2023/01/28 04:37:34;;;;;;;4.50;3.67;;;;;;;1.33;84.72;95825.63;4348381;32;20236;-64
2023/01/28 04:40:01;;;;;;;4.30;4.03;;;;;;;1.29;84.49;95832.28;4390386;32;20288;-64
2023/01/28 04:42:26;;;;;;;4.27;3.87;;;;;;;1.11;84.90;95825.31;4386824;32;20220;-66
2023/01/28 04:44:51;;;;;;;4.77;3.73;;;;;;;1.41;83.62;95832.34;4367364;32;20277;-64
2023/01/28 04:47:18;;;;;;;3.17;2.83;;;;;;;1.57;83.26;95829.88;4368692;32;20193;-63
2023/01/28 04:49:45;;;;;;;8.13;3.60;;;;;;;1.50;83.38;95833.59;4359189;32;20185;-63
2023/01/28 04:52:12;;;;;;;5.37;2.47;;;;;;;1.57;83.30;95832.50;4367933;32;20329;-64
2023/01/28 04:54:38;;;;;;;4.60;3.40;;;;;;;1.39;83.85;95832.56;4369582;32;20421;-64
2023/01/28 04:57:04;;;;;;;4.33;4.13;;;;;;;1.47;83.79;95832.22;4377077;32;20276;-64
2023/01/28 04:59:29;;;;;;;4.00;3.80;;;;;;;1.41;83.87;95840.19;4371968;32;20280;-64
2023/01/28 05:01:54;;;;;;;3.33;3.23;;;;;;;1.21;84.12;95849.09;4357248;32;20192;-63
2023/01/28 05:04:20;;;;;;;3.70;3.50;;;;;;;1.19;85.09;95843.31;4364865;32;20192;-63
2023/01/28 05:06:47;;;;;;;3.17;3.07;;;;;;;1.17;85.70;95849.75;4388515;32;20347;-64
2023/01/28 05:09:14;;;;;;;3.27;3.07;;;;;;;1.38;85.17;95844.84;4395035;32;20276;-63
2023/01/28 05:11:39;;;;;;;3.53;3.30;;;;;;;1.37;85.10;95848.47;4393118;32;20295;-64
2023/01/28 05:14:05;;;;;;;3.07;2.87;;;;;;;1.08;85.84;95846.63;4392843;32;20280;-64
2023/01/28 05:16:33;;;;;;;4.30;2.90;;;;;;;1.40;85.24;95849.06;4384375;32;20215;-64
2023/01/28 05:19:01;;;;;;;3.23;3.07;;;;;;;1.59;84.24;95848.75;4390071;32;20272;-64
2023/01/28 05:21:27;;;;;;;4.43;4.13;;;;;;;1.57;84.17;95848.19;4383773;32;20302;-64
2023/01/28 05:23:56;;;;;;;2.23;2.13;;;;;;;1.49;83.76;95848.50;4356827;32;20297;-64
2023/01/28 05:26:23;;;;;;;3.30;3.20;;;;;;;1.43;84.62;95848.63;4361624;32;20238;-63
2023/01/28 05:28:50;;;;;;;5.60;5.10;;;;;;;1.33;84.84;95847.31;4373358;32;20371;-64
2023/01/28 05:31:16;;;;;;;3.20;3.03;;;;;;;1.19;85.53;95858.97;4367281;32;20298;-64
2023/01/28 05:33:43;;;;;;;3.87;3.57;;;;;;;1.30;85.24;95847.75;4381101;32;20316;-64
2023/01/28 05:36:10;;;;;;;3.40;3.13;;;;;;;1.06;86.12;95853.09;4383970;32;20299;-63
2023/01/28 05:38:36;;;;;;;3.05;2.95;;;;;;;0.94;87.05;95863.50;4392116;32;20184;-64
2023/01/28 05:41:01;;;;;;;5.03;4.63;;;;;;;0.93;87.36;95867.94;4354765;32;20243;-64
2023/01/28 05:43:27;;;;;;;3.60;3.27;;;;;;;0.64;87.96;95872.06;4370781;32;20191;-64
2023/01/28 05:45:52;;;;;;;6.97;5.00;;;;;;;0.89;88.08;95865.97;4368399;32;20219;-64
2023/01/28 05:48:18;;;;;;;4.93;3.17;;;;;;;1.01;87.61;95872.88;4375652;32;20184;-64
2023/01/28 05:50:49;;;;;;;5.20;4.67;;;;;;;1.02;87.27;95874.47;4341403;32;20210;-63
2023/01/28 05:53:16;;;;;;;2.85;2.75;;;;;;;1.30;86.53;95875.69;4363404;32;20197;-64
2023/01/28 05:55:41;;;;;;;4.95;4.65;;;;;;;1.04;86.72;95879.44;4377209;32;20196;-63
2023/01/28 05:58:07;;;;;;;4.63;4.33;;;;;;;1.02;86.64;95886.72;4374162;32;20188;-64
2023/01/28 06:00:34;;;;;;;4.07;3.73;;;;;;;1.06;87.16;95885.25;4370179;32;20246;-63
2023/01/28 06:03:01;;;;;;;5.78;4.47;;;;;;;1.01;87.00;95887.75;4356758;32;20300;-63
2023/01/28 06:05:26;;;;;;;3.53;3.43;;;;;;;0.98;87.13;95885.56;4399689;32;20210;-64
2023/01/28 06:07:55;;;;;;;3.00;2.67;;;;;;;0.91;87.42;95882.22;4366945;32;20277;-63
2023/01/28 06:10:20;;;;;;;2.27;2.17;;;;;;;0.91;87.74;95887.44;4386397;32;20211;-64
2023/01/28 06:12:46;;;;;;;3.87;3.23;;;;;;;1.17;86.62;95883.72;4357109;32;20361;-63
2023/01/28 06:15:11;;;;;;;3.93;2.67;;;;;;;1.27;86.44;95890.00;4396247;32;20293;-63
2023/01/28 06:17:36;;;;;;;3.70;3.50;;;;;;;1.20;86.26;95889.31;4385813;32;20184;-64
2023/01/28 06:20:02;;;;;;;3.20;2.30;;;;;;;1.18;85.57;95893.94;4371820;32;20242;-63
2023/01/28 06:22:29;;;;;;;3.47;3.23;;;;;;;1.01;85.05;95898.97;4391673;32;20207;-64
2023/01/28 06:24:55;;;;;;;2.37;2.27;;;;;;;1.06;85.47;95900.91;4382698;32;20341;-64
2023/01/28 06:27:21;;;;;;;3.03;2.92;;;;;;;1.13;85.29;95898.22;4381656;32;20284;-64
2023/01/28 06:29:47;;;;;;;4.00;3.73;;;;;;;0.99;85.70;95903.62;4350223;32;20300;-64
2023/01/28 06:32:14;;;;;;;2.47;2.37;;;;;;;0.89;86.07;95905.12;4375663;32;20224;-64
2023/01/28 06:34:42;;;;;;;2.93;2.53;;;;;;;1.02;86.30;95905.00;4378642;32;20185;-63
2023/01/28 06:37:12;;;;;;;2.23;2.13;;;;;;;1.12;85.82;95910.50;4380531;32;20309;-63
2023/01/28 06:39:38;;;;;;;2.55;2.45;;;;;;;1.16;84.92;95910.88;4386877;32;20294;-64
2023/01/28 06:42:05;;;;;;;2.72;2.58;;;;;;;0.95;85.55;95909.50;4374966;32;20188;-64
2023/01/28 06:44:31;;;;;;;4.50;4.30;;;;;;;0.73;86.14;95914.34;4363629;32;20224;-63
2023/01/28 06:46:58;;;;;;;3.80;3.67;;;;;;;0.86;86.19;95911.59;4367657;32;20290;-63
2023/01/28 06:49:23;;;;;;;3.65;1.65;;;;;;;0.73;86.36;95916.16;4369931;32;20211;-64
2023/01/28 06:51:50;;;;;;;3.83;3.47;;;;;;;0.79;86.45;95920.53;4353690;32;20212;-64
2023/01/28 06:54:17;;;;;;;3.28;2.92;;;;;;;1.04;85.98;95924.63;4388726;32;20188;-64
2023/01/28 06:56:43;;;;;;;3.00;2.80;;;;;;;1.21;85.14;95921.47;4366118;32;20196;-64
2023/01/28 06:59:09;;;;;;;2.57;2.37;;;;;;;0.93;86.07;95924.59;4381593;32;20333;-64
2023/01/28 07:01:34;;;;;;;3.93;3.63;;;;;;;1.23;85.32;95922.03;4370624;32;20308;-64
2023/01/28 07:03:59;;;;;;;3.33;3.23;;;;;;;1.13;85.36;95926.97;4379137;32;20220;-63
2023/01/28 07:06:27;;;;;;;3.33;2.97;;;;;;;1.49;84.33;95926.91;4335175;32;20207;-64
2023/01/28 07:08:53;;;;;;;3.60;3.40;;;;;;;1.31;84.83;95924.34;4351107;32;20204;-63
2023/01/28 07:11:28;;;;;;;4.10;4.00;;;;;;;1.41;84.91;95929.84;4388688;32;20287;-63
2023/01/28 07:13:53;;;;;;;4.23;3.60;;;;;;;1.61;83.74;95924.38;4358783;32;20192;-64
2023/01/28 07:16:20;;;;;;;2.27;2.17;;;;;;;1.63;83.36;95938.81;4395916;32;20298;-63
2023/01/28 07:18:47;;;;;;;3.37;3.17;;;;;;;1.73;83.22;95931.22;4378147;32;20200;-64
2023/01/28 07:21:18;;;;;;;3.23;2.93;;;;;;;1.72;83.63;95934.06;4364469;32;20292;-63
2023/01/28 07:23:44;;;;;;;3.73;3.57;;;;;;;1.38;84.10;95941.53;4372533;32;20284;-64
2023/01/28 07:26:09;;;;;;;3.97;3.77;;;;;;;1.14;84.71;95947.66;4383532;32;20298;-64
2023/01/28 07:28:35;;;;;;;3.43;3.23;;;;;;;1.14;85.58;95939.81;4390699;32;20207;-64
2023/01/28 07:31:03;;;;;;;1.63;1.63;;;;;;;1.09;85.77;95944.09;4335997;32;20186;-64
2023/01/28 07:33:28;;;;;;;2.90;2.70;;;;;;;1.05;85.84;95948.94;4363700;32;20200;-64
2023/01/28 07:35:53;;;;;;;2.83;2.63;;;;;;;0.96;86.32;95952.88;4384724;32;20184;-64
2023/01/28 07:38:19;;;;;;;3.50;3.17;;;;;;;1.08;85.34;95966.00;4395721;32;20308;-64
2023/01/28 07:40:45;;;;;;;4.47;4.00;;;;;;;0.81;86.47;95960.28;4388373;32;20267;-64
2023/01/28 07:43:12;;;;;;;2.37;2.28;;;;;;;0.60;87.73;95964.88;4355184;32;20215;-64
2023/01/28 07:45:39;;;;;;;3.15;3.05;;;;;;;0.99;87.55;95968.13;4368764;32;20268;-64
2023/01/28 07:48:08;;;;;;;2.50;2.40;;;;;;;1.07;86.57;95957.38;4377571;32;20225;-63
2023/01/28 07:50:37;;;;;;;2.10;2.08;;;;;;;1.05;86.91;95967.22;4376686;32;20223;-64
2023/01/28 07:53:05;;;;;;;4.97;4.68;;;;;;;0.93;86.87;95968.97;4359689;32;20326;-63
2023/01/28 07:55:34;;;;;;;4.78;2.40;;;;;;;0.72;86.81;95978.03;4389355;32;20243;-64
2023/01/28 07:58:02;;;;;;;2.83;2.62;;;;;;;0.74;87.54;95980.41;4385782;32;20234;-63
2023/01/28 08:00:31;;;;;;;1.40;1.40;;;;;;;0.64;88.67;95980.88;4378111;32;20196;-64
2023/01/28 08:03:01;;;;;;;4.43;4.12;;;;;;;0.75;88.26;95992.47;4357495;32;20192;-64
2023/01/28 08:05:43;;;;;;;1.70;1.60;;;;;;;0.58;88.31;95985.19;4330011;32;20181;-64
2023/01/28 08:08:09;;;;;;;2.70;2.60;;;;;;;0.49;87.92;95993.47;4354278;32;20185;-63
2023/01/28 08:10:37;;;;;;;5.35;2.85;;;;;;;0.53;87.86;95987.62;4357837;32;20231;-63
2023/01/28 08:13:03;;;;;;;3.92;3.70;;;;;;;0.49;88.20;95996.09;4380457;32;20208;-64
2023/01/28 08:15:28;;;;;;;2.65;2.55;;;;;;;0.50;89.03;95998.47;4381243;32;20239;-64
2023/01/28 08:17:54;;;;;;;3.07;2.87;;;;;;;0.89;87.76;95991.31;4382999;32;20238;-63
2023/01/28 08:20:21;;;;;;;2.35;2.25;;;;;;;0.96;86.83;95999.87;4382275;32;20241;-65
2023/01/28 08:22:48;;;;;;;4.37;3.47;;;;;;;0.84;87.52;95996.38;4355394;32;20275;-64
2023/01/28 08:25:14;;;;;;;2.73;2.60;;;;;;;1.06;87.18;96001.97;4375275;32;20184;-63
2023/01/28 08:27:41;;;;;;;2.73;2.63;;;;;;;1.09;86.42;96010.19;4378261;32;20280;-63
2023/01/28 08:30:09;;;;;;;2.20;2.10;;;;;;;0.83;87.63;96007.84;4378331;32;20184;-64
2023/01/28 08:32:35;;;;;;;2.50;2.40;;;;;;;0.79;88.15;96011.91;4371292;32;20297;-64
2023/01/28 08:35:07;;;;;;;4.15;2.92;;;;;;;0.95;87.94;96012.16;4367254;32;20180;-64
2023/01/28 08:37:33;;;;;;;2.50;2.30;;;;;;;1.00;87.48;96014.13;4359614;32;20220;-64
2023/01/28 08:39:58;;;;;;;3.10;2.93;;;;;;;1.05;87.13;96014.25;4381262;32;20199;-64
2023/01/28 08:42:23;;;;;;;2.43;2.23;;;;;;;0.86;87.99;96012.63;4377927;32;20255;-64
2023/01/28 08:44:49;;;;;;;2.93;2.77;;;;;;;0.86;88.12;96020.47;4379125;32;20189;-64
2023/01/28 08:47:14;;;;;;;2.80;2.70;;;;;;;1.13;87.51;96013.19;4370496;32;20196;-63
2023/01/28 08:49:41;;;;;;;2.83;2.73;;;;;;;1.21;86.67;96013.72;4332089;32;20214;-64
2023/01/28 08:52:07;;;;;;;2.00;1.90;;;;;;;1.11;87.12;96016.00;4363492;32;20232;-64
2023/01/28 08:54:35;;;;;;;3.20;3.10;;;;;;;1.21;86.51;96024.16;4382579;32;20345;-63
2023/01/28 08:57:02;;;;;;;4.05;3.85;;;;;;;1.41;85.45;96015.31;4383199;32;20315;-64
2023/01/28 08:59:27;;;;;;;2.77;2.67;;;;;;;1.47;85.12;96022.25;4379892;32;20193;-64
2023/01/28 09:01:52;;;;;;;4.17;3.87;;;;;;;1.38;85.33;96027.78;4375373;32;20307;-64
2023/01/28 09:04:18;;;;;;;3.67;2.67;;;;;;;1.41;85.73;96025.75;4374033;32;20180;-63
2023/01/28 09:06:45;;;;;;;3.10;2.90;;;;;;;1.34;85.55;96025.81;4365346;32;20185;-63
2023/01/28 09:09:10;;;;;;;2.67;2.58;;;;;;;1.28;86.08;96024.88;4389038;32;20199;-63
2023/01/28 09:11:37;;;;;;;4.07;3.67;;;;;;;1.24;86.40;96038.59;4365399;32;20272;-64
2023/01/28 09:14:05;;;;;;;4.43;4.13;;;;;;;1.29;86.20;96033.50;4377964;32;20188;-63
2023/01/28 09:16:31;;;;;;;3.70;3.47;;;;;;;1.23;86.28;96034.41;4374390;32;20302;-64
2023/01/28 09:18:59;;;;;;;3.37;3.28;;;;;;;1.57;85.66;96033.00;4353196;32;20384;-64
2023/01/28 09:21:25;;;;;;;2.67;2.57;;;;;;;1.50;84.24;96027.03;4364842;32;20264;-64
2023/01/28 09:23:54;;;;;;;3.63;3.43;;;;;;;1.41;85.01;96033.59;4365649;32;20277;-64
2023/01/28 09:26:20;;;;;;;3.63;3.43;;;;;;;1.52;85.03;96030.25;4386207;32;20192;-64
2023/01/28 09:28:50;;;;;;;3.97;3.83;;;;;;;1.56;84.87;96042.66;4377796;32;20356;-64
2023/01/28 09:31:16;;;;;;;3.93;3.70;;;;;;;1.49;85.30;96034.09;4393089;32;20284;-64
2023/01/28 09:33:43;;;;;;;2.77;2.50;;;;;;;1.88;84.03;96032.81;4382145;32;20367;-64
2023/01/28 09:36:11;;;;;;;3.80;3.60;;;;;;;2.09;82.96;96039.38;4386740;32;20272;-64
2023/01/28 09:38:38;;;;;;;3.30;3.07;;;;;;;1.85;83.12;96045.56;4373813;32;20316;-64
2023/01/28 09:41:36;;;;;;;4.40;4.10;;;;;;;1.80;83.17;96032.34;4387373;32;20337;-64
2023/01/28 09:44:24;;;;;;;3.30;3.20;;;;;;;2.20;82.02;96032.59;4355926;32;20295;-64
2023/01/28 09:46:51;;;;;;;2.07;1.97;;;;;;;1.98;81.49;96034.91;4366303;32;20311;-64
2023/01/28 09:49:40;;;;;;;2.83;2.73;;;;;;;2.14;81.61;96030.87;4366064;32;20284;-65
2023/01/28 09:52:13;;;;;;;2.70;2.60;;;;;;;2.08;81.62;96035.16;4369101;32;20328;-64
2023/01/28 09:55:37;;;;;;;4.77;3.37;;;;;;;2.16;81.56;96026.22;4371554;32;20313;-64
2023/01/28 09:58:16;;;;;;;2.20;2.10;;;;;;;2.13;80.94;96027.44;4320236;32;20305;-64
2023/01/28 10:01:08;;;;;;;3.07;2.97;;;;;;;2.13;81.43;96030.06;4371297;32;20315;-64
2023/01/28 10:03:58;;;;;;;3.90;3.03;;;;;;;2.20;81.40;96019.53;4362178;32;20296;-64
2023/01/28 10:06:43;;;;;;;3.03;2.83;;;;;;;2.36;80.62;96021.50;4339377;32;20291;-64
2023/01/28 10:09:37;;;;;;;3.40;3.13;;;;;;;2.54;79.40;96016.19;4378659;32;20275;-64
2023/01/28 10:12:11;;;;;;;2.23;2.13;;;;;;;2.37;80.62;96023.09;4368722;32;20281;-64
2023/01/28 10:15:21;;;;;;;3.13;2.90;;;;;;;2.24;80.98;96024.09;4376476;32;20288;-64
2023/01/28 10:17:52;;;;;;;2.50;2.40;;;;;;;2.49;80.73;96020.50;4375651;32;20371;-63
2023/01/28 10:20:27;;;;;;;3.80;3.60;;;;;;;2.55;80.37;96011.75;4363385;32;20433;-64
2023/01/28 10:23:23;;;;;;;3.83;3.53;;;;;;;2.66;79.51;96011.78;4362837;32;20295;-64
2023/01/28 10:25:49;;;;;;;2.77;2.67;;;;;;;2.70;79.01;96015.50;4395457;32;20290;-64
2023/01/28 10:28:24;;;;;;;2.73;2.60;;;;;;;2.60;78.73;96012.66;4381429;32;20287;-64
2023/01/28 10:30:51;;;;;;;3.53;3.33;;;;;;;2.60;78.65;96007.44;4381204;32;20179;-64
2023/01/28 10:33:38;;;;;;;4.07;3.77;;;;;;;2.49;80.15;96020.50;4350218;32;20378;-64
2023/01/28 10:36:06;;;;;;;5.20;4.07;;;;;;;2.58;79.36;96014.72;4389267;32;20316;-64
2023/01/28 10:38:33;;;;;;;3.30;3.00;;;;;;;2.32;79.12;96010.66;4379529;32;20283;-64
2023/01/28 10:41:03;;;;;;;3.63;3.43;;;;;;;2.46;79.90;96016.53;4363669;32;20330;-65
2023/01/28 10:43:36;;;;;;;2.73;2.63;;;;;;;2.47;78.19;96017.31;4396029;32;20303;-64
2023/01/28 10:46:18;;;;;;;3.17;2.97;;;;;;;2.44;78.92;96015.94;4375940;32;20284;-64
2023/01/28 10:49:04;;;;;;;3.10;3.00;;;;;;;2.08;79.54;96018.69;4365816;32;20331;-64
2023/01/28 10:51:36;;;;;;;1.93;1.83;;;;;;;1.94;79.90;96012.81;4390258;32;20296;-64
2023/01/28 10:54:27;;;;;;;2.77;2.07;;;;;;;1.88;79.95;96017.13;4376440;32;20363;-64
2023/01/28 10:56:58;;;;;;;2.23;2.13;;;;;;;2.06;78.54;96006.63;4322283;32;20291;-64
2023/01/28 10:59:29;;;;;;;3.27;3.07;;;;;;;2.29;77.85;96010.31;4337092;32;20288;-64
2023/01/28 11:02:04;;;;;;;2.77;2.57;;;;;;;2.54;76.60;96013.56;4353295;32;20306;-64
2023/01/28 11:04:33;;;;;;;2.70;2.60;;;;;;;2.68;76.04;96003.69;4378293;32;20275;-64
2023/01/28 11:07:04;;;;;;;3.63;3.43;;;;;;;2.88;75.60;96006.78;4343422;32;20285;-64
2023/01/28 11:09:36;;;;;;;2.30;2.20;;;;;;;2.85;75.08;96007.22;4364633;32;20355;-59
2023/01/28 11:12:34;;;;;;;3.03;2.93;;;;;;;2.55;76.15;96007.31;4301205;32;20336;-59
2023/01/28 11:15:02;;;;;;;2.47;2.23;;;;;;;2.52;75.96;96005.13;4384072;32;20299;-59
2023/01/28 11:17:33;;;;;;;3.10;2.87;;;;;;;2.72;75.62;96005.59;4375091;32;20303;-63
2023/01/28 11:20:11;;;;;;;2.93;2.83;;;;;;;2.86;75.59;96006.19;4379215;32;20322;-59
2023/01/28 11:22:44;;;;;;;2.37;2.27;;;;;;;2.74;74.92;96013.25;4352681;32;20296;-59
2023/01/28 11:25:32;;;;;;;2.83;2.57;;;;;;;2.57;75.58;96007.06;4368326;32;20372;-59
2023/01/28 11:28:01;;;;;;;4.23;3.80;;;;;;;2.59;75.39;96016.31;4357911;32;20288;-62
2023/01/28 11:30:39;;;;;;;1.67;1.67;;;;;;;2.43;75.17;96019.59;4352651;32;20402;-64
2023/01/28 11:33:36;;;;;;;2.87;2.40;;;;;;;2.14;74.87;96017.78;4328212;32;20323;-59
2023/01/28 11:36:22;;;;;;;3.43;3.30;;;;;;;2.29;75.96;96026.00;4313888;32;20281;-58
2023/01/28 11:38:54;;;;;;;2.07;1.97;;;;;;;2.64;75.49;96021.66;4344046;32;20482;-61
2023/01/28 11:41:42;;;;;;;2.93;2.73;;;;;;;2.51;74.90;96014.00;4357660;32;20371;-64
2023/01/28 11:44:18;;;;;;;3.20;3.00;;;;;;;2.41;74.83;96019.00;4300265;32;20363;-64
2023/01/28 11:47:14;;;;;;;2.50;2.40;;;;;;;2.24;73.67;96020.69;4340889;32;20365;-65
2023/01/28 11:49:59;;;;;;;3.17;2.93;;;;;;;2.44;73.82;96018.56;4380356;32;20284;-64
2023/01/28 11:52:34;;;;;;;2.73;2.63;;;;;;;2.46;74.05;96016.53;4358776;32;20299;-65
2023/01/28 11:55:18;;;;;;;2.87;2.77;;;;;;;2.58;73.16;96022.56;4365741;32;20284;-65
2023/01/28 11:57:51;;;;;;;3.30;2.10;;;;;;;2.65;73.72;96019.84;4363024;32;20382;-65
2023/01/28 12:00:39;;;;;;;2.53;2.43;;;;;;;2.63;73.91;96012.22;4369267;32;20371;-64
2023/01/28 12:03:50;;;;;;;1.63;1.53;;;;;;;2.55;72.85;96009.91;4325696;32;20363;-66
2023/01/28 12:06:40;;;;;;;4.23;3.93;;;;;;;2.86;70.65;96008.03;4360075;32;20285;-65
2023/01/28 12:09:11;;;;;;;2.27;2.07;;;;;;;2.82;70.84;96009.50;4340156;32;20273;-65
2023/01/28 12:12:10;;;;;;;3.57;2.97;;;;;;;2.71;70.79;96009.25;4341559;32;20376;-65
2023/01/28 12:15:03;;;;;;;0.83;0.80;;;;;;;2.50;70.95;96006.38;4368950;32;20291;-65
2023/01/28 12:17:58;;;;;;;2.13;2.03;;;;;;;2.76;71.07;96005.94;4369761;32;20322;-65
2023/01/28 12:20:40;;;;;;;6.33;5.47;;;;;;;2.70;71.52;96007.66;4371111;32;20295;-64
2023/01/28 12:23:30;;;;;;;3.13;2.47;;;;;;;2.60;70.47;96007.44;4361782;32;20276;-65
2023/01/28 12:26:15;;;;;;;2.37;2.27;;;;;;;2.76;71.20;96012.00;4353497;32;20299;-64
2023/01/28 12:28:51;;;;;;;2.17;2.17;;;;;;;3.10;70.66;96012.25;4369527;32;20280;-64
2023/01/28 12:31:28;;;;;;;2.23;2.13;;;;;;;2.82;71.51;96010.28;4351325;32;20288;-65
2023/01/28 12:34:40;;;;;;;2.03;1.93;;;;;;;2.85;71.55;96009.84;4358711;32;20285;-65